createdAt,value
2023-08-28T00:03:45.674Z,18.71
2023-08-28T00:08:47.376Z,19.70
2023-08-28T00:13:49.049Z,19.34
2023-08-28T00:18:50.776Z,19.08
2023-08-28T00:23:52.472Z,19.49
2023-08-28T00:28:54.246Z,18.89
2023-08-28T00:33:55.938Z,19.22
2023-08-28T00:38:58.419Z,19.05
2023-08-28T00:44:00.077Z,18.69
2023-08-28T00:49:02.199Z,19.10
2023-08-28T00:54:04.580Z,19.48
2023-08-28T00:59:06.506Z,18.90
2023-08-28T01:04:09.118Z,18.26
2023-08-28T01:09:32.995Z,16.50
2023-08-28T01:14:44.352Z,18.60
2023-08-28T01:19:46.211Z,18.18
2023-08-28T01:24:52.303Z,18.73
2023-08-28T01:30:14.307Z,18.21
2023-08-28T01:35:21.739Z,16.78
2023-08-28T01:40:29.109Z,16.34
2023-08-28T01:45:30.938Z,15.82
2023-08-28T01:50:32.698Z,16.28
2023-08-28T01:55:46.513Z,17.97
2023-08-28T02:00:48.316Z,16.79
2023-08-28T02:05:50.120Z,15.54
2023-08-28T02:10:53.651Z,16.58
2023-08-28T02:15:55.384Z,17.32
2023-08-28T02:20:57.272Z,17.88
2023-08-28T02:25:59.021Z,16.64
2023-08-28T02:31:01.144Z,17.55
2023-08-28T02:36:03.912Z,15.79
2023-08-28T02:41:07.758Z,16.64
2023-08-28T02:46:09.539Z,15.10
2023-08-28T02:51:11.196Z,15.55
2023-08-28T02:56:18.781Z,14.09
2023-08-28T03:01:21.033Z,14.82
2023-08-28T03:06:22.746Z,13.72
2023-08-28T03:11:24.419Z,14.65
2023-08-28T03:16:26.195Z,14.00
2023-08-28T03:21:27.903Z,14.82
2023-08-28T03:26:30.751Z,14.18
2023-08-28T03:31:32.582Z,15.46
2023-08-28T03:36:34.364Z,16.93
2023-08-28T03:41:36.010Z,15.37
2023-08-28T03:46:37.684Z,16.22
2023-08-28T03:51:39.391Z,17.82
2023-08-28T03:56:41.122Z,15.62
2023-08-28T04:01:42.853Z,16.16
2023-08-28T04:06:44.755Z,17.88
2023-08-28T04:11:46.954Z,16.65
2023-08-28T04:16:48.712Z,17.64
2023-08-28T04:21:50.374Z,17.44
2023-08-28T04:26:52.030Z,17.86
2023-08-28T04:31:53.792Z,15.71
2023-08-28T04:36:55.624Z,17.56
2023-08-28T04:41:58.311Z,17.95
2023-08-28T04:47:00.509Z,16.21
2023-08-28T04:52:03.557Z,18.39
2023-08-28T04:57:05.405Z,18.40
2023-08-28T05:02:07.899Z,18.57
2023-08-28T05:07:09.619Z,18.47
2023-08-28T05:12:11.269Z,16.78
2023-08-28T05:17:12.899Z,18.40
2023-08-28T05:22:14.591Z,15.96
2023-08-28T05:27:16.230Z,15.14
2023-08-28T05:32:17.913Z,16.24
2023-08-28T05:37:19.690Z,15.62
2023-08-28T05:42:21.517Z,16.44
2023-08-28T05:47:23.369Z,15.90
2023-08-28T05:52:25.117Z,14.54
2023-08-28T05:57:26.825Z,14.94
2023-08-28T06:02:28.511Z,15.60
2023-08-28T06:07:31.079Z,16.02
2023-08-28T06:12:32.837Z,15.14
2023-08-28T06:17:34.556Z,15.39
2023-08-28T06:22:36.261Z,15.00
2023-08-28T06:27:39.397Z,15.00
2023-08-28T06:32:41.123Z,14.21
2023-08-28T06:37:42.902Z,14.77
2023-08-28T06:42:44.771Z,14.37
2023-08-28T06:47:46.506Z,14.02
2023-08-28T06:52:48.216Z,14.38
2023-08-28T06:57:50.285Z,14.10
2023-08-28T07:02:52.298Z,14.53
2023-08-28T07:07:54.013Z,14.51
2023-08-28T07:12:55.716Z,14.46
2023-08-28T07:17:57.749Z,13.08
2023-08-28T07:23:00.106Z,14.01
2023-08-28T07:28:01.863Z,15.11
2023-08-28T07:33:04.191Z,14.71
2023-08-28T07:38:07.536Z,14.86
2023-08-28T07:43:09.278Z,15.14
2023-08-28T07:48:11.619Z,15.56
2023-08-28T07:53:13.870Z,16.18
2023-08-28T07:58:15.576Z,15.88
2023-08-28T08:03:17.219Z,16.09
2023-08-28T08:08:18.841Z,16.77
2023-08-28T08:13:20.568Z,16.38
2023-08-28T08:18:22.282Z,17.26
2023-08-28T08:23:24.511Z,18.40
2023-08-28T08:28:26.165Z,18.51
2023-08-28T08:33:27.853Z,17.20
2023-08-28T08:38:29.596Z,18.07
2023-08-28T08:43:31.282Z,18.87
2023-08-28T08:48:35.667Z,19.04
2023-08-28T08:53:43.407Z,17.70
2023-08-28T08:58:48.224Z,18.90
2023-08-28T09:03:50.460Z,20.01
2023-08-28T09:08:52.466Z,18.37
2023-08-28T09:13:54.125Z,17.50
2023-08-28T09:18:56.162Z,18.07
2023-08-28T09:23:59.609Z,16.71
2023-08-28T09:29:05.356Z,16.80
2023-08-28T09:34:09.513Z,18.07
2023-08-28T09:39:13.312Z,17.00
2023-08-28T09:44:20.258Z,16.60
2023-08-28T09:49:22.051Z,17.81
2023-08-28T09:54:24.256Z,17.62
2023-08-28T09:59:29.130Z,17.83
2023-08-28T10:04:31.869Z,17.73
2023-08-28T10:09:36.268Z,18.26
2023-08-28T10:14:38.734Z,18.03
2023-08-28T10:20:01.487Z,18.32
2023-08-28T10:25:04.317Z,15.95
2023-08-28T10:30:08.008Z,16.53
2023-08-28T10:35:11.096Z,17.55
2023-08-28T10:40:13.815Z,16.83
2023-08-28T10:45:16.078Z,17.04
2023-08-28T10:50:18.145Z,18.08
2023-08-28T10:55:21.248Z,17.80
2023-08-28T11:06:43.915Z,15.72
2023-08-28T11:11:45.548Z,14.21
2023-08-28T11:16:47.261Z,15.95
2023-08-28T11:21:49.012Z,15.57
2023-08-28T11:26:50.764Z,15.95
2023-08-28T11:31:52.844Z,14.71
2023-08-28T11:36:54.643Z,15.99
2023-08-28T11:41:56.399Z,15.96
2023-08-28T11:46:58.073Z,16.11
2023-08-28T11:51:59.721Z,16.47
2023-08-28T11:57:01.581Z,17.74
2023-08-28T12:02:06.309Z,16.97
2023-08-28T12:07:28.488Z,16.32
2023-08-28T12:12:30.281Z,16.45
2023-08-28T12:17:33.236Z,15.57
2023-08-28T12:22:43.428Z,17.59
2023-08-28T12:27:47.638Z,16.18
2023-08-28T12:32:53.787Z,15.78
2023-08-28T12:37:56.207Z,16.15
2023-08-28T12:43:00.434Z,17.33
2023-08-28T12:48:03.503Z,16.17
2023-08-28T12:53:06.317Z,16.85
2023-08-28T12:58:08.945Z,15.96
2023-08-28T13:03:11.226Z,17.66
2023-08-28T13:08:12.989Z,17.71
2023-08-28T13:13:15.215Z,18.10
2023-08-28T13:18:16.943Z,17.50
2023-08-28T13:23:18.626Z,18.18
2023-08-28T13:28:24.378Z,17.65
2023-08-28T13:33:26.995Z,16.80
2023-08-28T13:38:28.687Z,17.75
2023-08-28T13:43:30.724Z,16.81
2023-08-28T13:48:32.433Z,17.29
2023-08-28T13:53:34.196Z,17.37
2023-08-28T13:58:35.875Z,18.31
2023-08-28T14:03:37.620Z,18.16
2023-08-28T14:08:39.364Z,18.57
2023-08-28T14:13:41.102Z,17.64
2023-08-28T14:18:42.845Z,17.62
2023-08-28T14:23:44.532Z,17.34
2023-08-28T14:28:46.203Z,17.49
2023-08-28T14:33:47.883Z,17.04
2023-08-28T14:38:49.619Z,16.65
2023-08-28T14:43:51.467Z,16.90
2023-08-28T14:48:53.174Z,17.17
2023-08-28T14:53:57.303Z,16.65
2023-08-28T14:58:58.994Z,16.04
2023-08-28T15:05:21.615Z,15.94
2023-08-28T15:10:23.350Z,15.95
2023-08-28T15:15:25.672Z,16.49
2023-08-28T15:20:27.395Z,16.49
2023-08-28T15:25:31.316Z,15.58
2023-08-28T15:30:34.837Z,17.66
2023-08-28T15:35:36.692Z,16.14
2023-08-28T15:40:38.379Z,17.07
2023-08-28T15:45:58.336Z,16.42
2023-08-28T15:51:04.552Z,16.16
2023-08-28T15:56:06.193Z,16.94
2023-08-28T16:01:07.791Z,16.00
2023-08-28T16:06:11.852Z,16.07
2023-08-28T16:11:13.483Z,15.94
2023-08-28T16:16:15.140Z,17.23
2023-08-28T16:21:16.871Z,17.32
2023-08-28T16:26:18.606Z,17.29
2023-08-28T16:31:20.457Z,15.91
2023-08-28T16:36:23.849Z,17.87
2023-08-28T16:41:25.655Z,17.40
2023-08-28T16:46:27.369Z,16.95
2023-08-28T16:51:29.182Z,17.86
2023-08-28T16:56:32.591Z,17.16
2023-08-28T17:01:34.485Z,16.47
2023-08-28T17:06:40.760Z,16.51
2023-08-28T17:11:45.359Z,17.69
2023-08-28T17:16:47.064Z,17.11
2023-08-28T17:21:48.859Z,16.97
2023-08-28T17:26:50.511Z,17.72
2023-08-28T17:31:52.257Z,17.74
2023-08-28T17:36:53.918Z,18.48
2023-08-28T17:41:55.721Z,18.49
2023-08-28T17:46:57.348Z,18.13
2023-08-28T17:51:59.022Z,18.25
2023-08-28T17:57:00.620Z,18.57
2023-08-28T18:02:02.323Z,17.35
2023-08-28T18:07:04.115Z,18.30
2023-08-28T18:12:06.154Z,18.14
2023-08-28T18:17:07.867Z,18.10
2023-08-28T18:22:09.814Z,18.20
2023-08-28T18:27:11.904Z,17.84
2023-08-28T18:32:13.550Z,16.42
2023-08-28T18:37:16.234Z,16.47
2023-08-28T18:42:18.008Z,16.80
2023-08-28T18:47:19.726Z,15.60
2023-08-28T18:52:21.557Z,16.75
2023-08-28T18:57:23.337Z,16.34
2023-08-28T19:02:24.982Z,16.21
2023-08-28T19:07:27.886Z,16.64
2023-08-28T19:12:29.622Z,15.97
2023-08-28T19:17:31.231Z,16.36
2023-08-28T19:22:33.125Z,16.54
2023-08-28T19:27:34.757Z,17.00
2023-08-28T19:32:44.053Z,17.11
2023-08-28T19:37:49.667Z,17.09
2023-08-28T19:42:51.362Z,17.39
2023-08-28T19:47:54.294Z,18.50
2023-08-28T19:52:56.357Z,17.53
2023-08-28T19:57:58.062Z,17.88
2023-08-28T20:03:00.063Z,18.74
2023-08-28T20:08:02.041Z,18.22
2023-08-28T20:13:04.382Z,18.07
2023-08-28T20:18:09.136Z,16.43
2023-08-28T20:23:11.545Z,16.69
2023-08-28T20:28:14.138Z,16.03
2023-08-28T20:33:15.833Z,15.00
2023-08-28T20:38:17.538Z,15.80
2023-08-28T20:43:19.193Z,16.11
2023-08-28T20:48:22.057Z,15.57
2023-08-28T20:53:23.822Z,15.34
2023-08-28T20:58:25.673Z,15.27
2023-08-28T21:03:27.402Z,15.62
2023-08-28T21:08:29.224Z,15.90
2023-08-28T21:13:30.920Z,15.75
2023-08-28T21:18:33.199Z,16.29
2023-08-28T21:23:34.843Z,17.16
2023-08-28T21:28:38.025Z,17.01
2023-08-28T21:33:40.103Z,17.74
2023-08-28T21:38:41.897Z,17.44
2023-08-28T21:43:43.601Z,18.19
2023-08-28T21:48:45.320Z,17.30
2023-08-28T21:53:47.112Z,16.90
2023-08-28T21:58:49.065Z,16.96
2023-08-28T22:03:50.752Z,16.91
2023-08-28T22:08:53.626Z,15.98
2023-08-28T22:13:57.088Z,15.30
2023-08-28T22:18:58.873Z,15.38
2023-08-28T22:24:00.580Z,15.40
2023-08-28T22:29:03.434Z,14.71
2023-08-28T22:34:05.112Z,14.81
2023-08-28T22:39:06.914Z,14.46
2023-08-28T22:44:08.619Z,14.75
2023-08-28T22:49:10.300Z,14.88
2023-08-28T22:54:12.041Z,14.43
2023-08-28T22:59:13.736Z,15.73
2023-08-28T23:04:15.444Z,14.15
2023-08-28T23:09:17.218Z,14.19
2023-08-28T23:14:19.425Z,14.96
2023-08-28T23:19:21.092Z,16.50
2023-08-28T23:24:22.853Z,15.75
2023-08-28T23:29:26.134Z,15.42
2023-08-28T23:34:27.993Z,15.26
2023-08-28T23:39:29.773Z,16.94
2023-08-28T23:44:31.661Z,16.73
2023-08-28T23:49:33.357Z,17.30
2023-08-28T23:54:35.006Z,16.46
2023-08-28T23:59:37.108Z,16.50
